createdAt,value
2023-03-05T00:01:12.395Z,55.92
2023-03-05T00:03:39.331Z,60.65
2023-03-05T00:06:06.552Z,58.40
2023-03-05T00:08:33.856Z,55.03
2023-03-05T00:11:03.574Z,53.35
2023-03-05T00:13:30.273Z,57.25
2023-03-05T00:15:57.131Z,59.30
2023-03-05T00:18:24.117Z,63.20
2023-03-05T00:20:51.220Z,70.32
2023-03-05T00:23:17.878Z,69.45
2023-03-05T00:25:46.108Z,67.10
2023-03-05T00:28:13.243Z,64.43
2023-03-05T00:30:39.972Z,65.43
2023-03-05T00:33:06.658Z,66.82
2023-03-05T00:35:39.781Z,60.17
2023-03-05T00:38:06.471Z,50.20
2023-03-05T00:40:36.919Z,55.50
2023-03-05T00:43:03.742Z,61.17
2023-03-05T00:45:30.466Z,57.28
2023-03-05T00:47:57.300Z,58.63
2023-03-05T00:50:24.561Z,50.53
2023-03-05T00:52:51.423Z,49.72
2023-03-05T00:55:18.281Z,60.97
2023-03-05T00:57:45.200Z,57.50
2023-03-05T01:00:13.012Z,51.08
2023-03-05T01:02:39.745Z,61.22
2023-03-05T01:05:07.289Z,56.28
2023-03-05T01:07:33.996Z,57.50
2023-03-05T01:10:00.735Z,53.42
2023-03-05T01:12:27.394Z,57.67
2023-03-05T01:14:54.087Z,45.47
2023-03-05T01:17:20.737Z,58.67
2023-03-05T01:19:47.430Z,47.90
2023-03-05T01:22:14.104Z,53.58
2023-03-05T01:24:40.833Z,55.35
2023-03-05T01:27:07.523Z,51.45
2023-03-05T01:29:34.216Z,52.95
2023-03-05T01:32:02.426Z,48.38
2023-03-05T01:34:29.192Z,60.58
2023-03-05T01:36:55.941Z,56.70
2023-03-05T01:39:22.669Z,55.35
2023-03-05T01:41:49.330Z,50.97
2023-03-05T01:44:27.518Z,58.00
2023-03-05T01:46:54.309Z,54.55
2023-03-05T01:49:22.283Z,55.97
2023-03-05T01:51:56.439Z,52.45
2023-03-05T01:54:27.212Z,53.70
2023-03-05T01:56:56.137Z,48.22
2023-03-05T01:59:23.845Z,47.78
2023-03-05T02:01:53.478Z,54.53
2023-03-05T02:04:21.965Z,55.25
2023-03-05T02:06:49.940Z,52.67
2023-03-05T02:09:16.734Z,48.95
2023-03-05T02:11:43.599Z,50.22
2023-03-05T02:14:10.499Z,56.03
2023-03-05T02:16:38.190Z,51.88
2023-03-05T02:19:07.429Z,55.40
2023-03-05T02:21:40.583Z,57.72
2023-03-05T02:24:07.543Z,74.93
2023-03-05T02:26:34.300Z,60.53
2023-03-05T02:29:01.949Z,66.50
2023-03-05T02:31:28.770Z,68.22
2023-03-05T02:33:58.336Z,59.10
2023-03-05T02:36:25.770Z,56.67
2023-03-05T02:38:53.679Z,55.85
2023-03-05T02:41:20.457Z,61.88
2023-03-05T02:43:47.103Z,63.13
2023-03-05T02:46:13.874Z,60.08
2023-03-05T02:48:40.602Z,61.92
2023-03-05T02:51:07.859Z,61.38
2023-03-05T02:53:34.847Z,68.50
2023-03-05T02:56:01.651Z,55.83
2023-03-05T02:58:28.426Z,62.85
2023-03-05T03:00:55.101Z,59.53
2023-03-05T03:03:21.820Z,59.33
2023-03-05T03:05:48.654Z,61.25
2023-03-05T03:08:15.888Z,66.03
2023-03-05T03:10:42.581Z,59.65
2023-03-05T03:13:09.345Z,61.03
2023-03-05T03:15:38.014Z,58.90
2023-03-05T03:18:04.770Z,66.60
2023-03-05T03:20:32.750Z,77.30
2023-03-05T03:22:59.468Z,77.38
2023-03-05T03:25:26.242Z,73.40
2023-03-05T03:27:53.033Z,57.08
2023-03-05T03:30:19.735Z,59.22
2023-03-05T03:32:47.880Z,64.72
2023-03-05T03:35:14.628Z,61.17
2023-03-05T03:37:41.305Z,57.15
2023-03-05T03:40:08.801Z,59.50
2023-03-05T03:42:35.488Z,64.97
2023-03-05T03:45:02.606Z,61.85
2023-03-05T03:47:30.798Z,52.95
2023-03-05T03:49:58.878Z,65.10
2023-03-05T03:52:26.452Z,58.97
2023-03-05T03:54:53.739Z,52.92
2023-03-05T03:57:20.425Z,62.83
2023-03-05T03:59:47.186Z,60.85
2023-03-05T04:02:14.156Z,61.30
2023-03-05T04:04:40.961Z,54.25
2023-03-05T04:07:08.364Z,59.72
2023-03-05T04:09:35.200Z,52.90
2023-03-05T04:12:01.925Z,53.42
2023-03-05T04:14:28.724Z,54.42
2023-03-05T04:16:55.396Z,50.85
2023-03-05T04:19:22.141Z,52.75
2023-03-05T04:21:48.853Z,46.28
2023-03-05T04:24:15.479Z,49.28
2023-03-05T04:26:42.137Z,52.28
2023-03-05T04:29:08.788Z,42.45
2023-03-05T04:31:35.514Z,50.33
2023-03-05T04:34:02.235Z,47.03
2023-03-05T04:36:29.047Z,49.72
2023-03-05T04:38:55.717Z,43.35
2023-03-05T04:41:22.367Z,42.55
2023-03-05T04:43:49.046Z,45.83
2023-03-05T04:46:15.732Z,41.65
2023-03-05T04:48:42.422Z,48.55
2023-03-05T04:51:09.119Z,53.00
2023-03-05T04:53:36.210Z,51.92
2023-03-05T04:56:03.049Z,42.80
2023-03-05T04:58:29.885Z,51.83
2023-03-05T05:01:04.685Z,50.45
2023-03-05T05:03:31.801Z,59.08
2023-03-05T05:05:59.753Z,53.20
2023-03-05T05:08:26.614Z,52.13
2023-03-05T05:11:02.172Z,46.90
2023-03-05T05:13:29.451Z,47.50
2023-03-05T05:15:56.223Z,45.60
2023-03-05T05:18:23.009Z,42.45
2023-03-05T05:20:49.915Z,48.88
2023-03-05T05:23:17.337Z,50.30
2023-03-05T05:25:44.302Z,57.72
2023-03-05T05:28:11.889Z,53.47
2023-03-05T05:30:39.001Z,57.42
2023-03-05T05:33:05.686Z,54.03
2023-03-05T05:35:32.484Z,62.15
2023-03-05T05:37:59.356Z,62.15
2023-03-05T05:40:26.021Z,64.63
2023-03-05T05:42:52.767Z,55.42
2023-03-05T05:45:19.506Z,56.88
2023-03-05T05:47:46.199Z,60.13
2023-03-05T05:50:14.695Z,56.65
2023-03-05T05:52:41.400Z,58.63
2023-03-05T05:55:08.566Z,68.97
2023-03-05T05:57:35.518Z,57.35
2023-03-05T06:00:02.754Z,61.35
2023-03-05T06:02:29.463Z,59.72
2023-03-05T06:04:58.288Z,60.38
2023-03-05T06:07:25.111Z,78.22
2023-03-05T06:09:51.799Z,61.72
2023-03-05T06:12:18.473Z,53.08
2023-03-05T06:14:45.226Z,56.08
2023-03-05T06:17:14.846Z,44.95
2023-03-05T06:19:43.714Z,48.40
2023-03-05T06:22:10.423Z,51.33
2023-03-05T06:24:38.346Z,49.67
2023-03-05T06:27:06.359Z,48.90
2023-03-05T06:29:33.032Z,58.85
2023-03-05T06:31:59.781Z,48.50
2023-03-05T06:34:26.532Z,42.97
2023-03-05T06:36:53.274Z,50.42
2023-03-05T06:39:19.918Z,45.63
2023-03-05T06:41:46.556Z,83.93
2023-03-05T06:44:13.258Z,62.83
2023-03-05T06:46:40.020Z,50.88
2023-03-05T06:49:08.632Z,51.08
2023-03-05T06:51:37.693Z,51.25
2023-03-05T06:54:07.795Z,50.97
2023-03-05T06:56:38.440Z,47.97
2023-03-05T06:59:05.661Z,48.30
2023-03-05T07:01:32.868Z,56.10
2023-03-05T07:04:00.498Z,46.28
2023-03-05T07:06:27.907Z,47.97
2023-03-05T07:08:56.333Z,47.55
2023-03-05T07:11:23.515Z,55.60
2023-03-05T07:13:51.636Z,52.45
2023-03-05T07:16:20.799Z,57.80
2023-03-05T07:18:48.402Z,55.88
2023-03-05T07:21:21.420Z,55.90
2023-03-05T07:23:48.489Z,46.95
2023-03-05T07:26:16.126Z,54.10
2023-03-05T07:28:43.214Z,51.42
2023-03-05T07:31:16.153Z,47.03
2023-03-05T07:33:42.942Z,50.00
2023-03-05T07:36:10.818Z,46.13
2023-03-05T07:38:37.649Z,56.25
2023-03-05T07:41:06.642Z,48.75
2023-03-05T07:43:33.290Z,51.22
2023-03-05T07:46:00.242Z,66.28
2023-03-05T07:48:27.038Z,67.95
2023-03-05T07:51:20.890Z,68.60
2023-03-05T07:53:49.505Z,58.53
2023-03-05T07:56:26.520Z,52.97
2023-03-05T07:58:53.453Z,46.63
2023-03-05T08:01:20.129Z,46.70
2023-03-05T08:03:46.891Z,57.53
2023-03-05T08:06:13.656Z,53.95
2023-03-05T08:08:40.389Z,46.28
2023-03-05T08:11:09.520Z,52.00
2023-03-05T08:13:36.608Z,50.80
2023-03-05T08:16:08.052Z,59.88
2023-03-05T08:18:35.441Z,65.97
2023-03-05T08:21:02.256Z,67.22
2023-03-05T08:23:29.593Z,52.42
2023-03-05T08:25:56.912Z,53.05
2023-03-05T08:28:24.026Z,59.10
2023-03-05T08:30:50.899Z,66.97
2023-03-05T08:33:17.906Z,52.88
2023-03-05T08:35:44.803Z,57.72
2023-03-05T08:38:11.734Z,51.05
2023-03-05T08:40:38.380Z,55.17
2023-03-05T08:43:05.935Z,51.30
2023-03-05T08:45:32.675Z,62.95
2023-03-05T08:47:59.334Z,52.70
2023-03-05T08:50:26.153Z,41.30
2023-03-05T08:52:52.836Z,47.72
2023-03-05T08:55:19.685Z,48.65
2023-03-05T08:57:46.360Z,52.60
2023-03-05T09:00:13.958Z,57.42
2023-03-05T09:02:40.793Z,45.08
2023-03-05T09:05:08.066Z,43.83
2023-03-05T09:07:34.810Z,49.75
2023-03-05T09:10:01.474Z,46.90
2023-03-05T09:12:28.234Z,48.92
2023-03-05T09:14:55.772Z,37.63
2023-03-05T09:17:23.235Z,40.50
2023-03-05T09:19:50.396Z,36.13
2023-03-05T09:22:17.113Z,35.17
2023-03-05T09:24:44.174Z,32.58
2023-03-05T09:27:10.936Z,31.58
2023-03-05T09:29:37.845Z,42.78
2023-03-05T09:32:04.767Z,39.13
2023-03-05T09:34:31.771Z,31.52
2023-03-05T09:36:58.383Z,34.00
2023-03-05T09:39:25.093Z,40.50
2023-03-05T09:42:10.461Z,46.55
2023-03-05T09:44:55.920Z,50.38
2023-03-05T09:47:31.553Z,46.28
2023-03-05T09:50:10.118Z,44.75
2023-03-05T09:52:47.058Z,45.25
2023-03-05T09:55:19.429Z,42.03
2023-03-05T09:57:51.514Z,49.97
2023-03-05T10:00:37.850Z,45.28
2023-03-05T10:03:07.377Z,43.67
2023-03-05T10:05:52.801Z,40.40
2023-03-05T10:08:22.250Z,47.35
2023-03-05T10:10:52.458Z,40.97
2023-03-05T10:13:26.239Z,42.13
2023-03-05T10:16:11.351Z,39.15
2023-03-05T10:18:47.336Z,40.53
2023-03-05T10:21:17.428Z,39.70
2023-03-05T10:23:53.180Z,36.67
2023-03-05T10:26:52.182Z,40.13
2023-03-05T10:29:47.300Z,39.05
2023-03-05T10:32:32.250Z,38.00
2023-03-05T10:35:20.928Z,44.00
2023-03-05T10:37:59.766Z,45.25
2023-03-05T10:40:36.846Z,45.33
2023-03-05T10:43:25.298Z,51.70
2023-03-05T10:45:55.406Z,41.50
2023-03-05T10:48:42.136Z,40.22
2023-03-05T10:51:55.108Z,34.58
2023-03-05T10:54:35.932Z,40.95
2023-03-05T10:57:23.341Z,46.42
2023-03-05T11:00:06.554Z,42.92
2023-03-05T11:02:34.170Z,43.00
2023-03-05T11:05:01.110Z,47.53
2023-03-05T11:07:33.941Z,41.38
2023-03-05T11:10:00.588Z,44.88
2023-03-05T11:12:29.026Z,40.60
2023-03-05T11:15:20.122Z,40.85
2023-03-05T11:17:49.080Z,46.33
2023-03-05T11:20:28.013Z,46.25
2023-03-05T11:23:14.582Z,41.80
2023-03-05T11:26:13.464Z,37.55
2023-03-05T11:28:43.860Z,38.00
2023-03-05T11:31:16.748Z,35.05
2023-03-05T11:34:00.487Z,39.10
2023-03-05T11:36:34.446Z,37.45
2023-03-05T11:39:07.736Z,36.33
2023-03-05T11:41:36.080Z,35.65
2023-03-05T11:44:06.341Z,34.90
2023-03-05T11:46:44.188Z,49.35
2023-03-05T11:49:15.733Z,39.53
2023-03-05T11:52:11.850Z,35.72
2023-03-05T11:55:06.849Z,47.28
2023-03-05T11:57:41.933Z,37.80
2023-03-05T12:00:16.268Z,45.03
2023-03-05T12:02:43.200Z,39.85
2023-03-05T12:05:15.770Z,33.83
2023-03-05T12:07:46.590Z,42.47
2023-03-05T12:10:23.968Z,50.15
2023-03-05T12:12:50.598Z,32.42
2023-03-05T12:15:26.123Z,40.90
2023-03-05T12:20:36.395Z,38.58
2023-03-05T12:23:03.209Z,37.50
2023-03-05T12:25:46.901Z,37.13
2023-03-05T12:28:16.208Z,40.17
2023-03-05T12:33:34.561Z,42.90
2023-03-05T12:36:19.577Z,38.33
2023-03-05T12:38:48.301Z,39.58
2023-03-05T12:41:24.824Z,40.03
2023-03-05T12:44:19.374Z,44.92
2023-03-05T12:47:06.678Z,52.55
2023-03-05T12:49:39.769Z,44.13
2023-03-05T12:52:21.310Z,42.88
2023-03-05T12:55:15.861Z,40.85
2023-03-05T12:57:45.316Z,46.65
2023-03-05T13:00:21.728Z,39.28
2023-03-05T13:02:55.789Z,42.33
2023-03-05T13:05:31.437Z,46.30
2023-03-05T13:08:37.873Z,46.90
2023-03-05T13:11:22.883Z,37.90
2023-03-05T13:13:50.467Z,45.40
2023-03-05T13:16:24.515Z,43.33
2023-03-05T13:18:52.876Z,44.65
2023-03-05T13:21:24.327Z,60.15
2023-03-05T13:23:58.925Z,40.47
2023-03-05T13:26:26.882Z,45.70
2023-03-05T13:29:19.376Z,41.55
2023-03-05T13:31:49.006Z,48.63
2023-03-05T13:34:32.023Z,40.42
2023-03-05T13:37:07.589Z,41.42
2023-03-05T13:39:39.331Z,38.60
2023-03-05T13:42:18.140Z,42.55
2023-03-05T13:44:56.776Z,44.03
2023-03-05T13:47:26.250Z,44.80
2023-03-05T13:50:22.474Z,44.30
2023-03-05T13:55:35.119Z,39.92
2023-03-05T13:58:01.802Z,38.42
2023-03-05T14:00:30.523Z,35.67
2023-03-05T14:03:01.287Z,41.97
2023-03-05T14:05:28.730Z,42.03
2023-03-05T14:07:56.718Z,44.90
2023-03-05T14:10:26.352Z,45.53
2023-03-05T14:12:53.055Z,49.53
2023-03-05T14:15:21.711Z,48.22
2023-03-05T14:17:48.497Z,45.22
2023-03-05T14:20:27.652Z,43.30
2023-03-05T14:22:59.832Z,47.22
2023-03-05T14:25:39.812Z,39.40
2023-03-05T14:28:29.340Z,42.08
2023-03-05T14:30:56.897Z,45.42
2023-03-05T14:33:26.067Z,49.60
2023-03-05T14:35:53.038Z,47.85
2023-03-05T14:38:27.792Z,51.88
2023-03-05T14:40:54.629Z,68.38
2023-03-05T14:43:21.784Z,55.72
2023-03-05T14:45:48.542Z,56.35
2023-03-05T14:48:18.893Z,65.57
2023-03-05T14:50:53.677Z,65.05
2023-03-05T14:53:30.726Z,53.40
2023-03-05T14:55:57.385Z,60.85
2023-03-05T14:58:32.539Z,57.97
2023-03-05T15:00:59.568Z,67.60
2023-03-05T15:03:28.087Z,51.78
2023-03-05T15:05:57.133Z,53.08
2023-03-05T15:08:26.844Z,50.28
2023-03-05T15:10:54.116Z,58.28
2023-03-05T15:13:20.826Z,44.47
2023-03-05T15:15:49.621Z,66.30
2023-03-05T15:18:18.603Z,59.70
2023-03-05T15:20:46.145Z,52.35
2023-03-05T15:23:13.090Z,60.20
2023-03-05T15:25:40.302Z,49.40
2023-03-05T15:28:07.147Z,62.63
2023-03-05T15:30:37.289Z,49.10
2023-03-05T15:33:06.648Z,60.30
2023-03-05T15:37:59.971Z,66.72
2023-03-05T15:40:27.851Z,68.53
2023-03-05T15:42:59.261Z,85.80
2023-03-05T15:45:26.331Z,62.60
2023-03-05T15:47:53.872Z,49.90
2023-03-05T15:50:21.522Z,54.78
2023-03-05T15:52:48.743Z,57.40
2023-03-05T15:55:15.418Z,52.00
2023-03-05T15:57:43.851Z,69.88
2023-03-05T16:00:11.764Z,62.15
2023-03-05T16:02:38.453Z,60.08
2023-03-05T16:05:05.936Z,86.32
2023-03-05T16:07:34.285Z,59.55
2023-03-05T16:10:01.029Z,67.72
2023-03-05T16:12:33.063Z,59.75
2023-03-05T16:14:59.758Z,67.65
2023-03-05T16:17:26.437Z,53.65
2023-03-05T16:19:54.821Z,60.28
2023-03-05T16:22:21.586Z,54.20
2023-03-05T16:24:49.446Z,67.18
2023-03-05T16:27:16.146Z,53.53
2023-03-05T16:29:43.331Z,60.53
2023-03-05T16:32:10.016Z,56.95
2023-03-05T16:34:36.814Z,58.08
2023-03-05T16:37:06.911Z,55.17
2023-03-05T16:39:33.633Z,55.00
2023-03-05T16:42:00.416Z,61.83
2023-03-05T16:44:27.157Z,66.20
2023-03-05T16:46:54.209Z,58.38
2023-03-05T16:49:21.650Z,57.47
2023-03-05T16:51:48.873Z,59.40
2023-03-05T16:54:15.754Z,55.67
2023-03-05T16:56:42.522Z,58.15
2023-03-05T16:59:09.286Z,57.10
2023-03-05T17:01:36.055Z,62.78
2023-03-05T17:04:03.117Z,67.07
2023-03-05T17:06:31.468Z,84.00
2023-03-05T17:08:58.688Z,70.97
2023-03-05T17:11:26.015Z,76.97
2023-03-05T17:13:52.748Z,65.70
2023-03-05T17:16:21.032Z,61.55
2023-03-05T17:18:48.281Z,58.47
2023-03-05T17:21:16.161Z,62.00
2023-03-05T17:23:42.939Z,63.15
2023-03-05T17:26:11.894Z,66.38
2023-03-05T17:28:38.822Z,61.40
2023-03-05T17:31:05.681Z,67.05
2023-03-05T17:33:33.302Z,71.68
2023-03-05T17:36:00.393Z,69.13
2023-03-05T17:38:27.663Z,70.00
2023-03-05T17:40:54.462Z,68.82
2023-03-05T17:43:21.144Z,63.28
2023-03-05T17:45:48.040Z,73.55
2023-03-05T17:48:15.993Z,61.90
2023-03-05T17:50:45.094Z,67.88
2023-03-05T17:53:12.344Z,67.40
2023-03-05T17:55:39.942Z,71.68
2023-03-05T17:58:06.665Z,63.72
2023-03-05T18:00:33.694Z,64.05
2023-03-05T18:03:00.682Z,64.85
2023-03-05T18:05:28.433Z,57.38
2023-03-05T18:07:55.958Z,70.57
2023-03-05T18:10:24.742Z,67.60
2023-03-05T18:12:52.080Z,69.68
2023-03-05T18:15:20.256Z,59.20
2023-03-05T18:17:47.117Z,66.78
2023-03-05T18:20:29.477Z,77.70
2023-03-05T18:22:57.569Z,76.82
2023-03-05T18:25:30.787Z,63.10
2023-03-05T18:28:01.448Z,68.93
2023-03-05T18:30:28.984Z,82.43
2023-03-05T18:32:55.849Z,99.35
2023-03-05T18:35:23.225Z,106.13
2023-03-05T18:37:49.949Z,90.53
2023-03-05T18:40:20.322Z,82.57
2023-03-05T18:42:47.080Z,81.78
2023-03-05T18:45:15.313Z,81.85
2023-03-05T18:47:42.562Z,80.75
2023-03-05T18:50:12.215Z,78.00
2023-03-05T18:52:38.932Z,86.90
2023-03-05T18:55:06.129Z,86.57
2023-03-05T18:57:32.858Z,98.90
2023-03-05T18:59:59.599Z,102.68
2023-03-05T19:02:26.446Z,109.88
2023-03-05T19:04:53.124Z,114.82
2023-03-05T19:07:19.862Z,116.53
2023-03-05T19:09:58.880Z,120.03
2023-03-05T19:12:31.013Z,114.53
2023-03-05T19:14:59.375Z,112.05
2023-03-05T19:17:26.199Z,130.93
2023-03-05T19:19:54.220Z,171.75
2023-03-05T19:22:21.464Z,152.15
2023-03-05T19:24:48.169Z,171.35
2023-03-05T19:27:14.924Z,161.77
2023-03-05T19:29:43.198Z,97.00
2023-03-05T19:32:16.064Z,100.10
2023-03-05T19:34:45.010Z,96.45
2023-03-05T19:37:12.484Z,105.63
2023-03-05T19:39:40.431Z,93.88
2023-03-05T19:42:07.351Z,85.93
2023-03-05T19:44:34.338Z,93.13
2023-03-05T19:47:01.144Z,85.00
2023-03-05T19:49:28.133Z,82.78
2023-03-05T19:51:55.230Z,78.00
2023-03-05T19:54:22.922Z,73.07
2023-03-05T19:56:52.909Z,65.38
2023-03-05T19:59:21.293Z,69.93
2023-03-05T20:01:49.076Z,72.65
2023-03-05T20:04:21.733Z,66.40
2023-03-05T20:06:48.543Z,61.28
2023-03-05T20:09:16.366Z,60.88
2023-03-05T20:11:43.514Z,63.25
2023-03-05T20:14:10.440Z,60.55
2023-03-05T20:16:38.260Z,60.33
2023-03-05T20:19:07.182Z,57.03
2023-03-05T20:21:36.377Z,67.40
2023-03-05T20:24:07.862Z,60.78
2023-03-05T20:26:37.586Z,58.17
2023-03-05T20:29:04.975Z,61.65
2023-03-05T20:31:37.072Z,59.47
2023-03-05T20:34:09.838Z,56.53
2023-03-05T20:36:36.555Z,61.42
2023-03-05T20:39:04.252Z,66.35
2023-03-05T20:41:32.172Z,68.10
2023-03-05T20:43:58.986Z,67.13
2023-03-05T20:46:30.932Z,65.82
2023-03-05T20:49:01.590Z,62.53
2023-03-05T20:51:35.141Z,68.15
2023-03-05T20:54:13.098Z,124.28
2023-03-05T20:56:40.002Z,72.32
2023-03-05T20:59:08.925Z,65.35
2023-03-05T21:01:38.472Z,68.78
2023-03-05T21:06:32.426Z,57.30
2023-03-05T21:09:00.021Z,56.50
2023-03-05T21:11:26.719Z,51.60
2023-03-05T21:13:53.572Z,59.35
2023-03-05T21:16:23.770Z,61.20
2023-03-05T21:18:51.325Z,65.47
2023-03-05T21:21:18.634Z,65.15
2023-03-05T21:23:45.600Z,63.92
2023-03-05T21:26:13.492Z,72.05
2023-03-05T21:28:40.692Z,71.97
2023-03-05T21:31:09.758Z,64.97
2023-03-05T21:33:37.237Z,64.13
2023-03-05T21:36:05.145Z,61.05
2023-03-05T21:38:34.082Z,65.65
2023-03-05T21:41:01.920Z,75.40
2023-03-05T21:43:31.125Z,83.60
2023-03-05T21:45:59.624Z,83.88
2023-03-05T21:48:26.424Z,87.15
2023-03-05T21:50:54.852Z,71.32
2023-03-05T21:53:21.897Z,68.88
2023-03-05T21:56:26.019Z,105.85
2023-03-05T21:58:53.481Z,109.20
2023-03-05T22:01:21.265Z,93.55
2023-03-05T22:03:49.149Z,83.43
2023-03-05T22:06:17.072Z,83.15
2023-03-05T22:08:43.746Z,79.15
2023-03-05T22:11:11.686Z,82.18
2023-03-05T22:13:38.873Z,82.10
2023-03-05T22:16:06.222Z,85.45
2023-03-05T22:18:33.806Z,72.68
2023-03-05T22:21:01.009Z,75.97
2023-03-05T22:23:30.755Z,75.18
2023-03-05T22:26:03.173Z,77.40
2023-03-05T22:28:30.370Z,67.00
2023-03-05T22:30:57.147Z,79.93
2023-03-05T22:33:24.028Z,77.28
2023-03-05T22:35:51.023Z,69.72
2023-03-05T22:38:18.025Z,77.00
2023-03-05T22:40:46.223Z,72.25
2023-03-05T22:43:14.064Z,91.75
2023-03-05T22:45:40.894Z,97.65
2023-03-05T22:48:09.874Z,95.97
2023-03-05T22:50:40.675Z,88.85
2023-03-05T22:53:08.013Z,95.18
2023-03-05T22:55:34.936Z,91.35
2023-03-05T22:58:01.597Z,96.53
2023-03-05T23:00:28.262Z,98.20
2023-03-05T23:02:55.136Z,101.05
2023-03-05T23:05:21.811Z,85.30
2023-03-05T23:07:49.284Z,85.15
2023-03-05T23:10:23.039Z,90.03
2023-03-05T23:12:52.682Z,87.78
2023-03-05T23:15:25.788Z,87.80
2023-03-05T23:17:52.536Z,80.93
2023-03-05T23:20:21.438Z,80.57
2023-03-05T23:22:48.729Z,78.20
2023-03-05T23:25:16.510Z,78.20
2023-03-05T23:27:43.465Z,75.78
2023-03-05T23:30:23.685Z,79.60
2023-03-05T23:32:57.470Z,74.03
2023-03-05T23:35:30.447Z,73.78
2023-03-05T23:37:58.545Z,77.72
2023-03-05T23:40:31.621Z,73.60
2023-03-05T23:42:58.912Z,67.50
2023-03-05T23:45:26.615Z,71.60
2023-03-05T23:47:53.587Z,61.60
2023-03-05T23:50:23.010Z,60.60
2023-03-05T23:52:50.686Z,62.13
2023-03-05T23:55:23.181Z,50.50
2023-03-05T23:57:50.123Z,50.33
